createdAt,value
2023-11-24T00:02:10.860Z,90.20
2023-11-24T00:04:38.485Z,90.30
2023-11-24T00:07:05.240Z,90.30
2023-11-24T00:09:32.142Z,90.40
2023-11-24T00:11:59.979Z,90.40
2023-11-24T00:14:26.976Z,90.80
2023-11-24T00:16:54.478Z,90.40
2023-11-24T00:19:21.576Z,90.40
2023-11-24T00:21:48.381Z,90.50
2023-11-24T00:24:15.393Z,90.50
2023-11-24T00:26:42.233Z,90.50
2023-11-24T00:29:09.022Z,90.60
2023-11-24T00:31:37.603Z,90.50
2023-11-24T00:34:04.570Z,90.50
2023-11-24T00:36:31.473Z,90.50
2023-11-24T00:38:59.158Z,90.40
2023-11-24T00:41:26.115Z,90.20
2023-11-24T00:43:52.867Z,90.10
2023-11-24T00:46:19.830Z,90.00
2023-11-24T00:48:46.798Z,89.70
2023-11-24T00:51:13.609Z,89.40
2023-11-24T00:53:40.438Z,89.30
2023-11-24T00:56:07.807Z,89.10
2023-11-24T00:58:34.567Z,88.90
2023-11-24T01:01:04.273Z,88.90
2023-11-24T01:03:32.200Z,88.90
2023-11-24T01:05:59.414Z,88.90
2023-11-24T01:08:26.416Z,88.90
2023-11-24T01:10:57.780Z,88.90
2023-11-24T01:13:25.299Z,89.00
2023-11-24T01:15:52.547Z,89.10
2023-11-24T01:18:19.617Z,89.00
2023-11-24T01:20:47.129Z,89.20
2023-11-24T01:23:14.317Z,89.10
2023-11-24T01:25:41.210Z,89.30
2023-11-24T01:28:07.948Z,89.30
2023-11-24T01:30:35.269Z,89.30
2023-11-24T01:33:02.088Z,89.40
2023-11-24T01:35:29.167Z,89.60
2023-11-24T01:37:55.994Z,89.60
2023-11-24T01:40:22.873Z,89.70
2023-11-24T01:42:52.708Z,89.70
2023-11-24T01:45:19.512Z,89.80
2023-11-24T01:47:48.136Z,89.80
2023-11-24T01:50:17.517Z,89.90
2023-11-24T01:52:44.629Z,89.90
2023-11-24T01:55:17.271Z,90.00
2023-11-24T01:57:45.262Z,90.00
2023-11-24T02:00:14.608Z,90.00
2023-11-24T02:02:42.689Z,90.00
2023-11-24T02:05:11.418Z,89.80
2023-11-24T02:07:38.479Z,89.70
2023-11-24T02:10:05.919Z,89.40
2023-11-24T02:12:32.742Z,89.30
2023-11-24T02:14:59.456Z,89.10
2023-11-24T02:17:26.544Z,89.00
2023-11-24T02:19:53.497Z,88.90
2023-11-24T02:22:20.386Z,88.50
2023-11-24T02:24:47.217Z,88.50
2023-11-24T02:27:14.701Z,88.50
2023-11-24T02:29:41.601Z,88.40
2023-11-24T02:32:09.390Z,88.00
2023-11-24T02:34:36.370Z,88.00
2023-11-24T02:37:03.797Z,87.90
2023-11-24T02:39:30.751Z,87.80
2023-11-24T02:41:57.530Z,87.70
2023-11-24T02:44:24.389Z,87.60
2023-11-24T02:46:51.416Z,87.60
2023-11-24T02:49:18.263Z,87.60
2023-11-24T02:51:45.148Z,87.60
2023-11-24T02:54:12.071Z,87.70
2023-11-24T02:56:38.791Z,87.80
2023-11-24T02:59:05.706Z,87.80
2023-11-24T03:01:32.717Z,87.70
2023-11-24T03:03:59.593Z,87.60
2023-11-24T03:06:26.380Z,87.80
2023-11-24T03:08:53.235Z,87.80
2023-11-24T03:11:20.952Z,87.90
2023-11-24T03:13:47.704Z,88.00
2023-11-24T03:16:14.514Z,88.00
2023-11-24T03:18:41.309Z,88.30
2023-11-24T03:21:08.094Z,88.50
2023-11-24T03:23:35.024Z,88.70
2023-11-24T03:26:03.781Z,89.00
2023-11-24T03:28:31.502Z,89.30
2023-11-24T03:30:58.306Z,89.70
2023-11-24T03:33:25.206Z,90.20
2023-11-24T03:35:52.077Z,90.30
2023-11-24T03:38:18.832Z,90.50
2023-11-24T03:40:48.013Z,90.70
2023-11-24T03:43:14.842Z,90.80
2023-11-24T03:45:41.856Z,90.90
2023-11-24T03:48:08.928Z,91.00
2023-11-24T03:50:35.789Z,91.00
2023-11-24T03:53:02.751Z,91.10
2023-11-24T03:55:29.479Z,91.20
2023-11-24T03:57:56.216Z,91.20
2023-11-24T04:00:23.185Z,91.30
2023-11-24T04:02:49.975Z,91.30
2023-11-24T04:05:17.466Z,91.30
2023-11-24T04:07:44.318Z,91.30
2023-11-24T04:10:11.615Z,91.70
2023-11-24T04:12:38.462Z,91.40
2023-11-24T04:15:05.864Z,91.40
2023-11-24T04:17:33.261Z,91.50
2023-11-24T04:20:00.106Z,91.50
2023-11-24T04:22:26.974Z,91.50
2023-11-24T04:24:54.683Z,91.60
2023-11-24T04:27:21.434Z,91.50
2023-11-24T04:29:48.190Z,91.60
2023-11-24T04:32:14.932Z,91.60
2023-11-24T04:34:41.688Z,91.60
2023-11-24T04:37:09.173Z,91.60
2023-11-24T04:39:36.031Z,91.60
2023-11-24T04:42:03.192Z,91.50
2023-11-24T04:44:29.920Z,91.50
2023-11-24T04:46:56.936Z,91.60
2023-11-24T04:49:23.797Z,91.70
2023-11-24T04:51:50.921Z,92.00
2023-11-24T04:54:17.763Z,91.80
2023-11-24T04:56:44.496Z,91.90
2023-11-24T04:59:11.511Z,92.00
2023-11-24T05:01:38.360Z,92.10
2023-11-24T05:04:06.504Z,92.20
2023-11-24T05:06:33.401Z,92.30
2023-11-24T05:09:00.217Z,92.40
2023-11-24T05:11:26.939Z,92.80
2023-11-24T05:13:53.785Z,92.50
2023-11-24T05:16:20.845Z,92.60
2023-11-24T05:18:50.297Z,92.60
2023-11-24T05:21:17.122Z,92.70
2023-11-24T05:23:43.942Z,92.70
2023-11-24T05:26:10.699Z,92.80
2023-11-24T05:28:37.553Z,92.80
2023-11-24T05:31:06.115Z,92.90
2023-11-24T05:33:35.782Z,93.00
2023-11-24T05:36:08.169Z,93.00
2023-11-24T05:38:34.965Z,93.00
2023-11-24T05:41:01.803Z,93.10
2023-11-24T05:43:28.560Z,93.10
2023-11-24T05:45:55.343Z,93.10
2023-11-24T05:48:22.225Z,93.20
2023-11-24T05:50:48.974Z,93.20
2023-11-24T05:53:16.338Z,93.20
2023-11-24T05:55:43.073Z,93.20
2023-11-24T05:58:09.904Z,93.20
2023-11-24T06:00:36.840Z,93.20
2023-11-24T06:03:03.605Z,93.10
2023-11-24T06:05:31.338Z,93.20
2023-11-24T06:08:03.413Z,93.20
2023-11-24T06:10:30.733Z,93.60
2023-11-24T06:12:57.679Z,93.20
2023-11-24T06:15:25.263Z,93.10
2023-11-24T06:17:52.052Z,93.10
2023-11-24T06:20:19.253Z,93.10
2023-11-24T06:22:46.401Z,93.20
2023-11-24T06:25:16.185Z,93.20
2023-11-24T06:27:44.557Z,93.20
2023-11-24T06:30:12.011Z,93.20
2023-11-24T06:32:38.836Z,93.20
2023-11-24T06:35:11.122Z,93.20
2023-11-24T06:37:38.435Z,93.10
2023-11-24T06:40:06.528Z,93.10
2023-11-24T06:42:33.396Z,93.10
2023-11-24T06:45:00.328Z,93.20
2023-11-24T06:47:27.671Z,93.20
2023-11-24T06:49:54.640Z,93.20
2023-11-24T06:52:21.448Z,93.30
2023-11-24T06:54:48.194Z,93.20
2023-11-24T06:57:16.106Z,93.20
2023-11-24T06:59:43.253Z,93.20
2023-11-24T07:02:10.170Z,93.20
2023-11-24T07:04:37.514Z,93.20
2023-11-24T07:07:04.485Z,93.20
2023-11-24T07:09:31.296Z,93.30
2023-11-24T07:11:58.066Z,93.70
2023-11-24T07:14:24.808Z,93.30
2023-11-24T07:16:52.194Z,93.40
2023-11-24T07:19:20.315Z,93.40
2023-11-24T07:21:47.177Z,93.40
2023-11-24T07:24:13.975Z,93.40
2023-11-24T07:26:40.791Z,93.40
2023-11-24T07:29:07.520Z,93.40
2023-11-24T07:31:34.288Z,93.40
2023-11-24T07:34:01.106Z,93.40
2023-11-24T07:36:27.940Z,93.40
2023-11-24T07:38:54.796Z,93.50
2023-11-24T07:41:21.578Z,93.50
2023-11-24T07:43:48.657Z,93.50
2023-11-24T07:46:15.458Z,93.40
2023-11-24T07:48:43.328Z,93.40
2023-11-24T07:51:10.360Z,93.50
2023-11-24T07:53:37.116Z,93.60
2023-11-24T07:56:05.321Z,93.60
2023-11-24T07:58:32.204Z,93.60
2023-11-24T08:00:59.033Z,93.70
2023-11-24T08:03:25.990Z,93.70
2023-11-24T08:05:53.826Z,93.70
2023-11-24T08:08:21.489Z,93.80
2023-11-24T08:10:48.484Z,93.90
2023-11-24T08:13:15.463Z,93.90
2023-11-24T08:15:42.353Z,94.00
2023-11-24T08:18:09.168Z,94.00
2023-11-24T08:20:35.892Z,94.10
2023-11-24T08:23:02.655Z,94.10
2023-11-24T08:25:29.387Z,94.20
2023-11-24T08:27:56.146Z,94.10
2023-11-24T08:30:22.879Z,94.50
2023-11-24T08:32:50.662Z,94.40
2023-11-24T08:35:17.748Z,94.10
2023-11-24T08:37:44.509Z,94.10
2023-11-24T08:40:16.417Z,94.00
2023-11-24T08:42:45.029Z,94.10
2023-11-24T08:45:15.006Z,94.00
2023-11-24T08:47:44.952Z,94.00
2023-11-24T08:50:14.221Z,94.00
2023-11-24T08:52:41.507Z,93.90
2023-11-24T08:55:09.428Z,93.90
2023-11-24T08:57:36.517Z,94.00
2023-11-24T09:00:07.086Z,93.90
2023-11-24T09:02:34.365Z,93.90
2023-11-24T09:05:02.121Z,93.90
2023-11-24T09:07:28.931Z,93.90
2023-11-24T09:09:55.853Z,94.00
2023-11-24T09:12:23.124Z,94.10
2023-11-24T09:14:49.963Z,94.10
2023-11-24T09:17:17.425Z,94.10
2023-11-24T09:19:44.213Z,94.20
2023-11-24T09:22:11.730Z,94.20
2023-11-24T09:24:38.543Z,94.40
2023-11-24T09:27:05.928Z,94.40
2023-11-24T09:29:33.075Z,94.40
2023-11-24T09:31:59.797Z,94.40
2023-11-24T09:34:27.955Z,94.50
2023-11-24T09:36:55.361Z,94.50
2023-11-24T09:39:26.896Z,94.50
2023-11-24T09:41:54.237Z,94.60
2023-11-24T09:44:21.330Z,94.50
2023-11-24T09:46:52.244Z,94.10
2023-11-24T09:49:22.105Z,93.50
2023-11-24T09:51:49.300Z,93.40
2023-11-24T09:54:18.750Z,93.50
2023-11-24T09:56:45.808Z,93.50
2023-11-24T09:59:13.783Z,93.60
2023-11-24T10:01:41.235Z,93.60
2023-11-24T10:04:08.110Z,93.60
2023-11-24T10:06:38.444Z,93.60
2023-11-24T10:09:06.755Z,93.70
2023-11-24T10:11:35.005Z,93.70
2023-11-24T10:14:05.600Z,93.80
2023-11-24T10:16:32.699Z,93.90
2023-11-24T10:19:01.484Z,94.00
2023-11-24T10:21:33.231Z,94.50
2023-11-24T10:24:02.084Z,94.30
2023-11-24T10:26:29.192Z,94.30
2023-11-24T10:28:58.441Z,94.40
2023-11-24T10:31:25.790Z,94.40
2023-11-24T10:33:53.140Z,94.40
2023-11-24T10:36:24.509Z,94.30
2023-11-24T10:39:00.579Z,94.20
2023-11-24T10:41:30.098Z,94.10
2023-11-24T10:43:58.040Z,94.00
2023-11-24T10:46:28.823Z,93.80
2023-11-24T10:48:58.747Z,93.80
2023-11-24T10:51:40.255Z,93.80
2023-11-24T10:54:08.648Z,93.90
2023-11-24T10:56:40.568Z,93.80
2023-11-24T10:59:08.641Z,93.50
2023-11-24T11:01:35.972Z,93.30
2023-11-24T11:04:03.976Z,93.30
2023-11-24T11:06:54.002Z,93.30
2023-11-24T11:09:31.383Z,93.30
2023-11-24T11:12:32.220Z,93.40
2023-11-24T11:15:00.947Z,93.40
2023-11-24T11:17:27.821Z,93.50
2023-11-24T11:20:15.811Z,93.60
2023-11-24T11:22:45.765Z,93.50
2023-11-24T11:25:24.634Z,93.50
2023-11-24T11:27:51.432Z,93.60
2023-11-24T11:30:28.698Z,93.60
2023-11-24T11:33:16.322Z,93.50
2023-11-24T11:35:44.196Z,93.50
2023-11-24T11:38:13.715Z,93.60
2023-11-24T11:40:45.325Z,93.60
2023-11-24T11:43:16.115Z,93.60
2023-11-24T11:46:04.731Z,93.60
2023-11-24T11:48:39.644Z,93.20
2023-11-24T11:51:06.974Z,93.00
2023-11-24T11:53:35.246Z,93.00
2023-11-24T11:56:08.254Z,92.90
2023-11-24T11:58:36.135Z,93.00
2023-11-24T12:01:06.625Z,92.90
2023-11-24T12:03:34.724Z,92.90
2023-11-24T12:06:08.335Z,92.90
2023-11-24T12:08:39.867Z,92.80
2023-11-24T12:11:09.846Z,92.80
2023-11-24T12:13:40.518Z,93.00
2023-11-24T12:16:08.202Z,93.10
2023-11-24T12:18:37.244Z,93.30
2023-11-24T12:21:04.276Z,93.40
2023-11-24T12:23:31.309Z,93.40
2023-11-24T12:25:58.199Z,93.40
2023-11-24T12:28:25.066Z,93.40
2023-11-24T12:30:51.893Z,93.40
2023-11-24T12:33:22.983Z,93.40
2023-11-24T12:35:51.899Z,93.40
2023-11-24T12:38:19.696Z,93.40
2023-11-24T12:40:47.537Z,93.40
2023-11-24T12:43:18.811Z,93.20
2023-11-24T12:45:49.265Z,92.80
2023-11-24T12:48:23.957Z,92.80
2023-11-24T12:50:52.998Z,92.80
2023-11-24T12:53:20.109Z,92.80
2023-11-24T12:55:46.865Z,92.90
2023-11-24T12:58:13.809Z,92.90
2023-11-24T13:00:43.440Z,93.00
2023-11-24T13:03:11.338Z,93.00
2023-11-24T13:05:40.846Z,93.00
2023-11-24T13:08:08.113Z,92.90
2023-11-24T13:10:37.075Z,92.90
2023-11-24T13:13:03.979Z,92.80
2023-11-24T13:15:30.733Z,92.80
2023-11-24T13:17:57.591Z,92.80
2023-11-24T13:20:29.633Z,92.90
2023-11-24T13:22:56.975Z,92.90
2023-11-24T13:25:27.594Z,93.00
2023-11-24T13:27:54.903Z,93.00
2023-11-24T13:30:26.398Z,93.00
2023-11-24T13:32:53.489Z,93.10
2023-11-24T13:35:21.556Z,93.10
2023-11-24T13:37:51.808Z,93.20
2023-11-24T13:40:27.546Z,93.20
2023-11-24T13:42:55.164Z,93.30
2023-11-24T13:45:22.138Z,93.30
2023-11-24T13:47:49.202Z,93.30
2023-11-24T13:50:16.919Z,93.30
2023-11-24T13:52:44.998Z,93.30
2023-11-24T13:55:12.781Z,93.10
2023-11-24T13:57:40.056Z,93.30
2023-11-24T14:00:11.777Z,92.80
2023-11-24T14:02:39.041Z,92.70
2023-11-24T14:05:06.687Z,92.50
2023-11-24T14:07:33.564Z,92.30
2023-11-24T14:10:00.369Z,92.20
2023-11-24T14:12:27.823Z,92.00
2023-11-24T14:14:54.814Z,91.90
2023-11-24T14:17:21.798Z,91.80
2023-11-24T14:19:48.673Z,91.70
2023-11-24T14:22:17.581Z,91.60
2023-11-24T14:24:45.467Z,91.60
2023-11-24T14:27:14.121Z,91.70
2023-11-24T14:29:41.464Z,91.60
2023-11-24T14:32:08.779Z,91.70
2023-11-24T14:34:36.004Z,91.70
2023-11-24T14:37:03.758Z,91.70
2023-11-24T14:39:33.930Z,91.70
2023-11-24T14:42:01.139Z,91.60
2023-11-24T14:44:28.490Z,91.60
2023-11-24T14:46:56.496Z,91.50
2023-11-24T14:49:23.509Z,91.50
2023-11-24T14:51:51.392Z,91.50
2023-11-24T14:54:20.041Z,91.20
2023-11-24T14:56:49.297Z,91.00
2023-11-24T14:59:16.461Z,90.60
2023-11-24T15:01:44.543Z,90.40
2023-11-24T15:04:18.692Z,90.10
2023-11-24T15:06:51.567Z,90.10
2023-11-24T15:09:19.950Z,90.30
2023-11-24T15:11:49.665Z,90.50
2023-11-24T15:14:16.546Z,90.60
2023-11-24T15:16:53.644Z,90.80
2023-11-24T15:19:23.628Z,91.00
2023-11-24T15:21:50.483Z,91.10
2023-11-24T15:24:17.232Z,91.30
2023-11-24T15:26:47.057Z,91.40
2023-11-24T15:29:16.798Z,91.50
2023-11-24T15:31:46.307Z,91.60
2023-11-24T15:34:14.241Z,91.70
2023-11-24T15:36:41.745Z,91.80
2023-11-24T15:39:30.323Z,91.80
2023-11-24T15:41:57.317Z,92.00
2023-11-24T15:44:27.357Z,92.00
2023-11-24T15:46:55.433Z,91.90
2023-11-24T15:49:22.432Z,91.80
2023-11-24T15:51:53.948Z,91.60
2023-11-24T15:54:25.145Z,91.40
2023-11-24T15:56:53.235Z,91.20
2023-11-24T15:59:26.760Z,91.10
2023-11-24T16:01:58.423Z,91.10
2023-11-24T16:04:25.546Z,91.10
2023-11-24T16:06:56.278Z,91.10
2023-11-24T16:09:26.518Z,91.00
2023-11-24T16:12:08.755Z,91.00
2023-11-24T16:14:38.518Z,91.10
2023-11-24T16:17:06.734Z,91.10
2023-11-24T16:19:33.947Z,91.20
2023-11-24T16:22:01.662Z,91.20
2023-11-24T16:24:28.811Z,91.20
2023-11-24T16:26:55.969Z,91.20
2023-11-24T16:29:23.706Z,91.20
2023-11-24T16:31:52.469Z,91.30
2023-11-24T16:34:26.331Z,91.40
2023-11-24T16:36:56.296Z,91.40
2023-11-24T16:39:24.170Z,91.40
2023-11-24T16:41:51.508Z,91.50
2023-11-24T16:44:18.488Z,91.60
2023-11-24T16:46:58.985Z,91.60
2023-11-24T16:49:29.256Z,91.70
2023-11-24T16:51:56.179Z,91.80
2023-11-24T16:54:23.163Z,91.80
2023-11-24T16:56:50.454Z,91.90
2023-11-24T16:59:21.863Z,91.90
2023-11-24T17:01:50.444Z,92.00
2023-11-24T17:04:17.540Z,92.10
2023-11-24T17:06:48.652Z,92.10
2023-11-24T17:09:16.733Z,92.10
2023-11-24T17:11:44.069Z,92.20
2023-11-24T17:14:11.459Z,92.20
2023-11-24T17:16:38.318Z,92.20
2023-11-24T17:19:05.269Z,92.30
2023-11-24T17:21:32.174Z,92.30
2023-11-24T17:23:59.052Z,92.40
2023-11-24T17:26:27.161Z,92.40
2023-11-24T17:28:54.457Z,92.40
2023-11-24T17:31:24.650Z,92.40
2023-11-24T17:33:57.571Z,92.40
2023-11-24T17:36:25.022Z,92.50
2023-11-24T17:38:51.810Z,92.50
2023-11-24T17:41:18.576Z,92.50
2023-11-24T17:43:46.090Z,92.50
2023-11-24T17:46:13.236Z,92.50
2023-11-24T17:48:42.763Z,92.60
2023-11-24T17:51:09.894Z,92.60
2023-11-24T17:53:37.156Z,92.60
2023-11-24T17:56:04.864Z,92.70
2023-11-24T17:58:31.937Z,92.60
2023-11-24T18:00:59.102Z,92.60
2023-11-24T18:03:26.109Z,92.60
2023-11-24T18:05:52.940Z,92.50
2023-11-24T18:08:23.013Z,92.40
2023-11-24T18:10:50.167Z,92.30
2023-11-24T18:13:17.947Z,92.20
2023-11-24T18:15:45.073Z,92.10
2023-11-24T18:18:12.773Z,92.40
2023-11-24T18:20:39.713Z,92.30
2023-11-24T18:23:07.081Z,91.80
2023-11-24T18:25:39.551Z,91.70
2023-11-24T18:28:09.733Z,91.60
2023-11-24T18:30:36.730Z,91.50
2023-11-24T18:33:05.692Z,91.40
2023-11-24T18:35:35.147Z,91.30
2023-11-24T18:38:02.529Z,91.40
2023-11-24T18:40:29.409Z,91.40
2023-11-24T18:42:56.222Z,91.40
2023-11-24T18:45:23.053Z,91.80
2023-11-24T18:47:49.960Z,91.50
2023-11-24T18:50:17.680Z,91.60
2023-11-24T18:52:45.638Z,91.70
2023-11-24T18:55:13.444Z,91.80
2023-11-24T18:57:44.122Z,91.70
2023-11-24T19:00:19.149Z,91.70
2023-11-24T19:02:47.548Z,91.70
2023-11-24T19:05:15.051Z,91.60
2023-11-24T19:07:42.843Z,91.50
2023-11-24T19:10:12.942Z,91.50
2023-11-24T19:12:40.823Z,91.50
2023-11-24T19:15:09.605Z,91.40
2023-11-24T19:17:36.540Z,91.30
2023-11-24T19:20:03.488Z,91.30
2023-11-24T19:22:31.233Z,91.20
2023-11-24T19:24:58.220Z,91.20
2023-11-24T19:27:24.969Z,91.20
2023-11-24T19:29:51.744Z,91.60
2023-11-24T19:32:18.498Z,91.20
2023-11-24T19:34:45.246Z,91.10
2023-11-24T19:37:12.048Z,91.00
2023-11-24T19:39:40.963Z,90.90
2023-11-24T19:42:07.801Z,90.80
2023-11-24T19:44:36.228Z,90.60
2023-11-24T19:47:03.175Z,90.50
2023-11-24T19:49:30.093Z,90.30
2023-11-24T19:51:56.952Z,90.30
2023-11-24T19:54:24.359Z,90.10
2023-11-24T19:56:51.199Z,89.60
2023-11-24T19:59:17.944Z,89.10
2023-11-24T20:01:44.825Z,89.30
2023-11-24T20:04:11.711Z,87.90
2023-11-24T20:06:38.455Z,87.60
2023-11-24T20:09:09.674Z,87.00
2023-11-24T20:11:37.352Z,86.70
2023-11-24T20:14:04.699Z,86.30
2023-11-24T20:16:31.924Z,86.00
2023-11-24T20:18:58.788Z,85.90
2023-11-24T20:21:28.170Z,86.00
2023-11-24T20:23:55.103Z,85.80
2023-11-24T20:26:23.049Z,86.00
2023-11-24T20:28:53.292Z,85.60
2023-11-24T20:31:20.871Z,85.60
2023-11-24T20:33:51.575Z,85.40
2023-11-24T20:36:22.142Z,85.30
2023-11-24T20:38:50.201Z,85.10
2023-11-24T20:41:21.730Z,84.90
2023-11-24T20:43:48.508Z,84.80
2023-11-24T20:46:15.565Z,84.00
2023-11-24T20:48:43.634Z,83.70
2023-11-24T20:51:13.334Z,83.70
2023-11-24T20:53:40.610Z,83.40
2023-11-24T20:56:09.179Z,83.20
2023-11-24T20:58:36.092Z,82.90
2023-11-24T21:01:03.250Z,82.90
2023-11-24T21:03:30.449Z,82.20
2023-11-24T21:05:57.279Z,82.00
2023-11-24T21:08:24.154Z,81.90
2023-11-24T21:10:51.387Z,81.70
2023-11-24T21:13:20.416Z,81.80
2023-11-24T21:15:47.246Z,81.50
2023-11-24T21:18:14.272Z,81.30
2023-11-24T21:20:41.832Z,81.20
2023-11-24T21:23:08.704Z,81.20
2023-11-24T21:25:35.578Z,81.10
2023-11-24T21:28:02.441Z,81.00
2023-11-24T21:30:29.285Z,81.40
2023-11-24T21:32:59.050Z,81.50
2023-11-24T21:35:25.919Z,81.50
2023-11-24T21:37:53.274Z,81.60
2023-11-24T21:40:20.195Z,81.90
2023-11-24T21:42:46.976Z,82.00
2023-11-24T21:45:13.873Z,82.20
2023-11-24T21:47:44.292Z,82.40
2023-11-24T21:50:14.150Z,82.50
2023-11-24T21:52:41.974Z,82.50
2023-11-24T21:55:08.963Z,82.90
2023-11-24T21:57:35.735Z,82.80
2023-11-24T22:00:04.066Z,82.90
2023-11-24T22:02:32.986Z,83.00
2023-11-24T22:05:02.181Z,83.00
2023-11-24T22:07:29.273Z,83.30
2023-11-24T22:09:56.147Z,83.30
2023-11-24T22:12:23.658Z,83.50
2023-11-24T22:14:50.425Z,83.60
2023-11-24T22:17:17.249Z,83.60
2023-11-24T22:19:44.072Z,83.80
2023-11-24T22:22:10.852Z,83.80
2023-11-24T22:24:37.760Z,84.50
2023-11-24T22:27:06.477Z,83.70
2023-11-24T22:29:33.307Z,84.50
2023-11-24T22:32:00.613Z,83.70
2023-11-24T22:34:27.462Z,83.70
2023-11-24T22:36:54.189Z,83.70
2023-11-24T22:39:20.954Z,83.40
2023-11-24T22:41:48.861Z,83.40
2023-11-24T22:44:15.756Z,84.20
2023-11-24T22:46:42.632Z,83.40
2023-11-24T22:49:09.458Z,83.40
2023-11-24T22:51:36.290Z,83.50
2023-11-24T22:54:03.218Z,83.50
2023-11-24T22:56:30.178Z,83.50
2023-11-24T22:58:57.579Z,83.60
2023-11-24T23:01:25.806Z,83.80
2023-11-24T23:03:54.763Z,84.00
2023-11-24T23:06:25.697Z,84.10
2023-11-24T23:08:53.738Z,84.30
2023-11-24T23:11:22.561Z,84.50
2023-11-24T23:13:51.700Z,84.70
2023-11-24T23:16:20.171Z,84.70
2023-11-24T23:18:47.634Z,85.00
2023-11-24T23:21:17.213Z,85.10
2023-11-24T23:23:48.609Z,85.30
2023-11-24T23:26:16.710Z,85.40
2023-11-24T23:28:43.560Z,85.40
2023-11-24T23:31:12.572Z,85.70
2023-11-24T23:33:41.748Z,85.90
2023-11-24T23:36:14.152Z,86.00
2023-11-24T23:38:41.948Z,86.30
2023-11-24T23:41:09.006Z,86.30
2023-11-24T23:43:35.924Z,86.50
2023-11-24T23:46:03.088Z,86.60
2023-11-24T23:48:30.057Z,86.60
2023-11-24T23:50:56.897Z,86.80
2023-11-24T23:53:25.109Z,87.00
2023-11-24T23:55:52.953Z,87.20
2023-11-24T23:58:20.879Z,87.50
